Time;durP1;ratioP1;P1;durP2;ratioP2;P2;SDS_P1;SDS_P2;PMS_P1;PMS_P2;Temp;Humidity;BMP_temperature;BMP_pressure;BME280_temperature;BME280_humidity;BME280_pressure;Samples;Min_cycle;Max_cycle;Signal;HPM_P1;HPM_P2
2021/11/23 00:00:44;;;;;;;7.20;5.22;;;-0.80;99.90;;;;;;5080699;28;20029;-73
2021/11/23 00:03:12;;;;;;;5.80;5.30;;;-0.80;99.90;;;;;;5091000;28;20047;-73
2021/11/23 00:05:39;;;;;;;11.27;6.07;;;-0.80;99.90;;;;;;5074651;28;20478;-73
2021/11/23 00:08:05;;;;;;;10.85;6.93;;;-0.70;99.90;;;;;;5075106;28;20048;-74
2021/11/23 00:10:31;;;;;;;7.20;6.35;;;-0.70;99.90;;;;;;5074596;28;20342;-73
2021/11/23 00:12:59;;;;;;;5.70;5.18;;;-0.70;99.90;;;;;;5075160;28;20027;-73
2021/11/23 00:15:26;;;;;;;7.20;6.20;;;-0.60;99.90;;;;;;5074409;28;20035;-73
2021/11/23 00:17:52;;;;;;;8.07;6.65;;;-0.60;99.90;;;;;;5073848;28;20029;-74
2021/11/23 00:20:18;;;;;;;7.20;6.60;;;-0.70;99.90;;;;;;5075218;28;20036;-73
2021/11/23 00:22:45;;;;;;;7.70;6.28;;;-0.60;99.90;;;;;;5075032;28;20032;-73
2021/11/23 00:25:12;;;;;;;7.20;6.53;;;-0.50;99.90;;;;;;5075013;28;20499;-73
2021/11/23 00:27:39;;;;;;;6.93;6.25;;;-0.60;99.90;;;;;;5075233;28;20044;-73
2021/11/23 00:30:05;;;;;;;6.63;5.53;;;-0.70;99.90;;;;;;5059642;28;20076;-74
2021/11/23 00:32:31;;;;;;;7.40;6.47;;;-0.60;99.90;;;;;;5054339;28;20033;-73
2021/11/23 00:34:58;;;;;;;7.53;6.82;;;-0.70;99.90;;;;;;5051526;28;20040;-74
2021/11/23 00:37:25;;;;;;;6.63;5.60;;;-0.70;99.90;;;;;;5051903;28;20037;-74
2021/11/23 00:39:51;;;;;;;6.80;5.95;;;-0.70;99.90;;;;;;5063232;28;20036;-73
2021/11/23 00:42:17;;;;;;;7.65;5.97;;;-0.80;99.90;;;;;;5073352;28;20036;-73
2021/11/23 00:44:44;;;;;;;7.35;6.65;;;-0.80;99.90;;;;;;5057401;28;20498;-73
2021/11/23 00:47:10;;;;;;;7.82;6.40;;;-0.80;99.90;;;;;;5036635;28;20029;-73
2021/11/23 00:49:36;;;;;;;6.82;6.22;;;-0.80;99.90;;;;;;5056644;28;20043;-74
2021/11/23 00:52:02;;;;;;;7.22;6.53;;;-0.90;99.90;;;;;;5069964;28;20040;-74
2021/11/23 00:54:29;;;;;;;6.90;6.30;;;-0.90;99.90;;;;;;5060090;28;20052;-73
2021/11/23 00:56:55;;;;;;;9.40;6.38;;;-1.00;99.90;;;;;;5083058;28;20036;-73
2021/11/23 00:59:21;;;;;;;6.60;5.93;;;-1.00;99.90;;;;;;5064567;28;20033;-77
2021/11/23 01:01:48;;;;;;;6.18;5.53;;;-1.10;99.90;;;;;;5059259;28;20033;-73
2021/11/23 01:04:14;;;;;;;6.68;6.00;;;-1.20;99.90;;;;;;5057057;28;20033;-73
2021/11/23 01:06:40;;;;;;;5.68;5.18;;;-1.20;99.90;;;;;;5044783;28;20043;-73
2021/11/23 01:09:06;;;;;;;5.45;4.80;;;-1.20;99.90;;;;;;5066393;28;20466;-72
2021/11/23 01:11:33;;;;;;;6.45;5.85;;;-1.20;99.90;;;;;;5056485;28;20028;-73
2021/11/23 01:13:59;;;;;;;10.13;5.88;;;-1.20;99.90;;;;;;5059197;28;20036;-73
2021/11/23 01:16:25;;;;;;;6.47;5.88;;;-1.20;99.90;;;;;;5045661;28;20044;-73
2021/11/23 01:18:51;;;;;;;7.20;4.93;;;-1.20;99.90;;;;;;5057925;28;20386;-73
2021/11/23 01:21:20;;;;;;;6.75;6.03;;;-1.20;99.90;;;;;;5046253;28;20074;-73
2021/11/23 01:23:47;;;;;;;8.38;7.57;;;-1.30;99.90;;;;;;5035034;28;20044;-73
2021/11/23 01:26:13;;;;;;;10.82;6.72;;;-1.30;99.90;;;;;;5036007;28;20037;-73
2021/11/23 01:28:39;;;;;;;5.50;5.00;;;-1.20;99.90;;;;;;5034387;28;20079;-73
2021/11/23 01:31:06;;;;;;;6.55;5.95;;;-1.30;99.90;;;;;;5034678;28;20049;-73
2021/11/23 01:33:32;;;;;;;7.18;6.07;;;-1.50;99.90;;;;;;5042812;28;20053;-74
2021/11/23 01:35:59;;;;;;;8.70;6.55;;;-1.50;99.90;;;;;;5035863;28;20390;-73
2021/11/23 01:38:25;;;;;;;7.32;6.65;;;-1.50;99.90;;;;;;5053973;28;20033;-76
2021/11/23 01:40:51;;;;;;;9.23;6.78;;;-1.50;99.90;;;;;;5055245;28;20509;-73
2021/11/23 01:43:18;;;;;;;10.32;7.18;;;-1.50;99.90;;;;;;5035370;28;20052;-75
2021/11/23 01:45:44;;;;;;;8.05;7.32;;;-1.50;99.90;;;;;;5057680;28;20036;-73
2021/11/23 01:48:11;;;;;;;10.07;7.45;;;-1.50;99.90;;;;;;5060412;28;20029;-74
2021/11/23 01:50:38;;;;;;;9.02;6.05;;;-1.50;99.90;;;;;;5035694;28;20045;-73
2021/11/23 01:53:06;;;;;;;8.35;7.55;;;-1.50;99.90;;;;;;5063106;28;20402;-73
2021/11/23 01:55:40;;;;;;;10.30;8.65;;;-1.40;99.90;;;;;;5052418;28;20480;-73
2021/11/23 01:58:08;;;;;;;9.45;8.55;;;-1.40;99.90;;;;;;5052975;28;20048;-74
2021/11/23 02:00:35;;;;;;;10.02;9.02;;;-1.20;99.90;;;;;;5042252;28;20045;-74
2021/11/23 02:03:01;;;;;;;10.02;8.70;;;-1.10;99.90;;;;;;5043682;28;20040;-73
2021/11/23 02:05:28;;;;;;;11.30;9.77;;;-1.00;99.90;;;;;;5047739;28;20385;-74
2021/11/23 02:07:54;;;;;;;12.50;9.90;;;-0.90;99.90;;;;;;5053075;28;20032;-73
2021/11/23 02:10:21;;;;;;;10.70;9.75;;;-0.80;99.90;;;;;;5035514;28;20068;-73
2021/11/23 02:12:48;;;;;;;10.85;9.68;;;-0.80;99.90;;;;;;5053768;28;20040;-73
2021/11/23 02:15:15;;;;;;;13.98;9.48;;;-0.90;99.90;;;;;;5052729;28;20036;-73
2021/11/23 02:17:44;;;;;;;9.20;8.27;;;-0.90;99.90;;;;;;5034338;28;20031;-74
2021/11/23 02:20:29;;;;;;;12.25;8.40;;;-1.00;99.90;;;;;;5052656;28;20040;-74
2021/11/23 02:22:56;;;;;;;9.30;8.45;;;-1.10;99.90;;;;;;5052986;28;20037;-73
2021/11/23 02:25:22;;;;;;;8.48;7.68;;;-1.10;99.90;;;;;;5052389;28;20033;-76
2021/11/23 02:27:49;;;;;;;8.52;7.50;;;-1.20;99.90;;;;;;5052519;28;20032;-74
2021/11/23 02:30:15;;;;;;;9.88;7.88;;;-1.20;99.90;;;;;;5063578;28;20053;-74
2021/11/23 02:32:51;;;;;;;8.50;7.70;;;-1.30;99.90;;;;;;5070700;28;20040;-74
2021/11/23 02:35:19;;;;;;;12.30;8.68;;;-1.30;99.90;;;;;;5072468;28;20032;-75
2021/11/23 02:37:48;;;;;;;9.13;8.13;;;-1.30;99.90;;;;;;5087696;28;20028;-74
2021/11/23 02:40:16;;;;;;;14.88;7.82;;;-1.30;99.90;;;;;;5071719;28;20037;-75
2021/11/23 02:42:42;;;;;;;10.90;7.72;;;-1.40;99.90;;;;;;5072009;28;20040;-74
2021/11/23 02:45:10;;;;;;;6.75;5.75;;;-1.50;99.90;;;;;;5071003;28;20044;-74
2021/11/23 02:47:38;;;;;;;7.63;6.82;;;-1.70;99.90;;;;;;5071533;28;20470;-74
2021/11/23 02:50:06;;;;;;;6.70;6.18;;;-1.70;99.90;;;;;;5072510;28;20035;-73
2021/11/23 02:52:32;;;;;;;9.43;6.68;;;-1.70;99.90;;;;;;5060985;28;20051;-74
2021/11/23 02:55:00;;;;;;;7.13;6.35;;;-1.70;99.90;;;;;;5072236;28;20035;-74
2021/11/23 02:57:29;;;;;;;7.35;6.65;;;-1.80;99.90;;;;;;5089344;28;20496;-75
2021/11/23 02:59:55;;;;;;;8.45;7.10;;;-1.80;99.90;;;;;;5059554;28;20040;-74
2021/11/23 03:02:22;;;;;;;6.95;6.35;;;-1.80;99.90;;;;;;5072105;28;20032;-74
2021/11/23 03:04:56;;;;;;;18.90;12.85;;;-1.80;99.90;;;;;;5073443;28;20033;-73
2021/11/23 03:07:24;;;;;;;51.88;29.50;;;-1.90;99.90;;;;;;5072085;28;20028;-74
2021/11/23 03:09:51;;;;;;;27.98;18.77;;;-2.10;99.90;;;;;;5072791;28;20032;-74
2021/11/23 03:12:24;;;;;;;13.95;12.02;;;-2.00;99.90;;;;;;5085807;28;20040;-73
2021/11/23 03:14:50;;;;;;;8.50;7.30;;;-2.00;99.90;;;;;;5071622;28;20474;-73
2021/11/23 03:17:18;;;;;;;7.38;6.68;;;-1.90;99.90;;;;;;5071431;28;20491;-73
2021/11/23 03:19:46;;;;;;;10.95;7.32;;;-1.80;99.90;;;;;;5066683;28;20044;-73
2021/11/23 03:22:13;;;;;;;8.57;7.80;;;-1.90;99.90;;;;;;5077906;28;20048;-73
2021/11/23 03:24:40;;;;;;;9.68;7.65;;;-1.90;99.90;;;;;;5082335;28;20055;-73
2021/11/23 03:27:08;;;;;;;7.57;6.82;;;-2.00;99.90;;;;;;5075788;28;20036;-73
2021/11/23 03:29:35;;;;;;;8.07;7.05;;;-2.00;99.90;;;;;;5069553;28;20061;-74
2021/11/23 03:32:02;;;;;;;14.98;13.10;;;-2.00;99.90;;;;;;5070070;28;20054;-74
2021/11/23 03:34:36;;;;;;;9.25;8.27;;;-2.10;99.90;;;;;;5083216;28;20048;-74
2021/11/23 03:37:03;;;;;;;14.27;9.10;;;-2.20;99.90;;;;;;5071374;28;20033;-73
2021/11/23 03:39:29;;;;;;;10.77;7.55;;;-2.20;99.90;;;;;;5077925;28;20047;-74
2021/11/23 03:41:55;;;;;;;8.50;7.15;;;-2.30;99.90;;;;;;5082502;28;20044;-74
2021/11/23 03:44:21;;;;;;;8.02;6.85;;;-2.40;99.90;;;;;;5085280;28;20024;-74
2021/11/23 03:46:48;;;;;;;7.70;6.78;;;-2.30;99.90;;;;;;5070582;28;20032;-74
2021/11/23 03:49:14;;;;;;;8.65;7.78;;;-2.40;99.90;;;;;;5071870;28;20029;-74
2021/11/23 03:51:40;;;;;;;13.60;8.23;;;-2.40;99.90;;;;;;5072497;28;20466;-74
2021/11/23 03:54:06;;;;;;;9.15;7.18;;;-2.40;99.90;;;;;;5084898;28;20044;-74
2021/11/23 03:56:32;;;;;;;14.82;13.27;;;-2.50;99.90;;;;;;5077904;28;20032;-74
2021/11/23 03:58:59;;;;;;;13.15;10.38;;;-2.40;99.90;;;;;;5063028;28;20040;-74
2021/11/23 04:01:25;;;;;;;12.85;10.95;;;-2.50;99.90;;;;;;5090872;28;20044;-77
2021/11/23 04:03:51;;;;;;;11.02;8.15;;;-2.40;99.90;;;;;;5075530;28;20420;-75
2021/11/23 04:06:17;;;;;;;7.78;6.65;;;-2.40;99.90;;;;;;5074834;28;20029;-75
2021/11/23 04:08:43;;;;;;;7.65;6.95;;;-2.40;99.90;;;;;;5090437;28;20044;-74
2021/11/23 04:11:10;;;;;;;14.00;7.93;;;-2.50;99.90;;;;;;5074765;28;20039;-74
2021/11/23 04:13:36;;;;;;;10.05;8.25;;;-2.60;99.90;;;;;;5073686;28;20051;-74
2021/11/23 04:16:02;;;;;;;9.43;6.97;;;-2.60;99.90;;;;;;5074491;28;20028;-75
2021/11/23 04:18:29;;;;;;;10.77;7.57;;;-2.70;99.90;;;;;;5094097;28;20028;-74
2021/11/23 04:20:56;;;;;;;10.18;8.55;;;-2.70;99.90;;;;;;5087702;28;20144;-74
2021/11/23 04:23:23;;;;;;;8.13;7.22;;;-2.70;99.90;;;;;;5074606;28;20047;-76
2021/11/23 04:25:50;;;;;;;9.40;6.70;;;-2.60;99.90;;;;;;5073820;28;20043;-74
2021/11/23 04:28:16;;;;;;;8.93;7.25;;;-2.60;99.90;;;;;;5073748;28;20033;-74
2021/11/23 04:30:42;;;;;;;7.40;6.53;;;-2.50;99.90;;;;;;5073976;28;20041;-74
2021/11/23 04:33:13;;;;;;;8.02;6.40;;;-2.60;99.90;;;;;;5074989;28;20040;-74
2021/11/23 04:35:40;;;;;;;8.77;6.68;;;-2.70;99.90;;;;;;5072621;28;20055;-74
2021/11/23 04:38:08;;;;;;;7.60;6.75;;;-2.80;99.90;;;;;;5073368;28;20040;-74
2021/11/23 04:40:34;;;;;;;7.88;7.18;;;-2.80;99.90;;;;;;5084491;28;20043;-74
2021/11/23 04:43:02;;;;;;;8.88;7.85;;;-2.80;99.90;;;;;;5076369;28;20024;-74
2021/11/23 04:45:28;;;;;;;11.98;7.82;;;-2.80;99.90;;;;;;5074146;28;20025;-76
2021/11/23 04:47:56;;;;;;;10.18;8.85;;;-2.90;99.90;;;;;;5074461;28;20028;-75
2021/11/23 04:50:22;;;;;;;7.68;7.03;;;-2.90;99.90;;;;;;5074723;28;20024;-75
2021/11/23 04:52:49;;;;;;;7.53;6.82;;;-2.90;99.90;;;;;;5095314;28;20490;-75
2021/11/23 04:55:15;;;;;;;8.57;7.68;;;-2.90;99.90;;;;;;5072495;28;20076;-75
2021/11/23 04:57:41;;;;;;;9.27;8.38;;;-2.70;99.90;;;;;;5073965;28;20032;-74
2021/11/23 05:00:12;;;;;;;13.80;9.88;;;-2.70;99.90;;;;;;5088298;28;20041;-75
2021/11/23 05:02:38;;;;;;;9.07;8.27;;;-2.70;99.90;;;;;;5081856;28;20051;-73
2021/11/23 05:05:06;;;;;;;11.32;7.95;;;-2.70;99.90;;;;;;5081014;28;20031;-73
2021/11/23 05:07:32;;;;;;;9.23;8.32;;;-2.70;99.90;;;;;;5073184;28;20032;-73
2021/11/23 05:09:58;;;;;;;8.18;7.32;;;-2.70;99.90;;;;;;5075519;28;20029;-74
2021/11/23 05:12:24;;;;;;;10.50;7.85;;;-2.70;99.90;;;;;;5079220;28;20039;-73
2021/11/23 05:14:51;;;;;;;10.10;7.45;;;-2.80;99.90;;;;;;5086965;28;20039;-73
2021/11/23 05:17:18;;;;;;;8.10;7.32;;;-2.90;99.90;;;;;;5085266;28;20040;-73
2021/11/23 05:19:44;;;;;;;9.57;7.07;;;-3.00;99.90;;;;;;5086575;28;20035;-73
2021/11/23 05:22:11;;;;;;;8.57;6.13;;;-3.00;99.90;;;;;;5081541;28;20051;-73
2021/11/23 05:24:37;;;;;;;6.82;6.13;;;-3.10;99.90;;;;;;5076887;28;20036;-73
2021/11/23 05:27:03;;;;;;;6.75;6.15;;;-3.20;99.90;;;;;;5079551;28;20036;-73
2021/11/23 05:29:30;;;;;;;11.27;6.75;;;-3.20;99.90;;;;;;5064924;28;20037;-75
2021/11/23 05:31:57;;;;;;;10.23;6.65;;;-3.10;99.90;;;;;;5055791;28;20045;-73
2021/11/23 05:34:23;;;;;;;7.47;6.00;;;-3.10;99.90;;;;;;5055438;28;20040;-73
2021/11/23 05:36:49;;;;;;;6.43;5.80;;;-3.10;99.90;;;;;;5053642;28;20028;-73
2021/11/23 05:39:17;;;;;;;7.25;6.60;;;-3.10;99.90;;;;;;5053638;28;20025;-73
2021/11/23 05:41:44;;;;;;;9.85;6.72;;;-3.20;99.90;;;;;;5055491;28;20033;-73
2021/11/23 05:44:11;;;;;;;8.18;7.10;;;-3.30;99.90;;;;;;5064872;28;20025;-73
2021/11/23 05:46:39;;;;;;;6.53;5.93;;;-3.30;99.90;;;;;;5066692;28;20040;-73
2021/11/23 05:49:05;;;;;;;10.32;6.35;;;-3.20;99.90;;;;;;5053395;28;20393;-74
2021/11/23 05:51:32;;;;;;;8.68;6.93;;;-3.20;99.90;;;;;;5034871;28;20044;-74
2021/11/23 05:53:58;;;;;;;7.50;6.35;;;-3.20;99.90;;;;;;5052989;28;20028;-73
2021/11/23 05:56:24;;;;;;;8.10;6.60;;;-3.20;99.90;;;;;;5053013;28;20044;-77
2021/11/23 05:58:50;;;;;;;7.18;6.50;;;-3.30;99.90;;;;;;5035035;28;20040;-74
2021/11/23 06:01:17;;;;;;;14.15;7.05;;;-3.20;99.90;;;;;;5052866;28;20040;-74
2021/11/23 06:03:43;;;;;;;7.43;6.72;;;-3.30;99.90;;;;;;5058185;28;20453;-73
2021/11/23 06:06:13;;;;;;;9.02;7.13;;;-3.40;99.90;;;;;;5056193;28;20028;-74
2021/11/23 06:08:40;;;;;;;7.10;5.85;;;-3.30;99.90;;;;;;5039970;28;20024;-73
2021/11/23 06:11:07;;;;;;;7.97;6.53;;;-3.30;99.90;;;;;;5046568;28;20049;-74
2021/11/23 06:13:34;;;;;;;6.95;6.35;;;-3.30;99.90;;;;;;5041856;28;20496;-78
2021/11/23 06:16:00;;;;;;;8.70;7.18;;;-3.20;99.90;;;;;;5068125;28;20024;-77
2021/11/23 06:18:26;;;;;;;7.85;7.15;;;-3.20;99.90;;;;;;5034796;28;20041;-78
2021/11/23 06:20:54;;;;;;;9.68;5.18;;;-3.20;99.90;;;;;;5052435;28;20036;-77
2021/11/23 06:23:21;;;;;;;8.05;6.25;;;-3.20;99.90;;;;;;5055192;28;20052;-78
2021/11/23 06:25:50;;;;;;;7.65;6.75;;;-3.30;99.90;;;;;;5054226;28;20187;-77
2021/11/23 06:28:19;;;;;;;7.90;7.00;;;-3.20;99.90;;;;;;5047711;28;20036;-77
2021/11/23 06:30:45;;;;;;;8.80;7.53;;;-3.20;99.90;;;;;;5039102;28;20032;-77
2021/11/23 06:33:12;;;;;;;7.88;7.07;;;-3.30;99.90;;;;;;5056867;28;20064;-78
2021/11/23 06:35:39;;;;;;;21.33;14.85;;;-3.30;99.90;;;;;;5053373;28;20033;-79
2021/11/23 06:38:07;;;;;;;60.42;53.83;;;-3.30;99.90;;;;;;5048200;28;20045;-79
2021/11/23 06:40:34;;;;;;;30.92;27.50;;;-3.30;99.90;;;;;;5049525;28;20037;-79
2021/11/23 06:43:00;;;;;;;21.70;15.75;;;-3.20;99.90;;;;;;5022044;28;20044;-79
2021/11/23 06:45:27;;;;;;;16.77;15.23;;;-3.20;99.90;;;;;;5054120;28;20036;-79
2021/11/23 06:47:54;;;;;;;21.27;15.27;;;-3.20;99.90;;;;;;5065008;28;20382;-74
2021/11/23 06:50:20;;;;;;;38.55;25.35;;;-3.20;99.90;;;;;;5071451;28;20442;-73
2021/11/23 06:52:47;;;;;;;33.13;23.98;;;-3.20;99.90;;;;;;5056131;28;20041;-74
2021/11/23 06:55:13;;;;;;;28.17;23.60;;;-3.20;99.90;;;;;;5034527;28;20045;-74
2021/11/23 06:57:40;;;;;;;39.92;25.83;;;-3.20;99.90;;;;;;5059955;28;20041;-74
2021/11/23 07:00:08;;;;;;;26.65;22.75;;;-3.20;99.90;;;;;;5040594;28;20029;-74
2021/11/23 07:02:35;;;;;;;20.95;18.73;;;-3.10;99.90;;;;;;5040725;28;20045;-74
2021/11/23 07:05:01;;;;;;;19.73;17.17;;;-3.10;99.90;;;;;;5063049;28;20041;-73
2021/11/23 07:07:28;;;;;;;18.50;14.10;;;-3.10;99.90;;;;;;5051600;28;20036;-75
2021/11/23 07:09:54;;;;;;;14.13;11.20;;;-3.10;99.90;;;;;;5060974;28;20639;-73
2021/11/23 07:12:20;;;;;;;13.50;12.10;;;-3.20;99.90;;;;;;5064907;28;20044;-73
2021/11/23 07:14:47;;;;;;;17.27;13.57;;;-3.20;99.90;;;;;;5038340;28;20029;-74
2021/11/23 07:17:13;;;;;;;41.60;26.40;;;-3.20;99.90;;;;;;5070762;28;20028;-75
2021/11/23 07:19:39;;;;;;;31.35;20.05;;;-3.20;99.90;;;;;;5064126;28;20025;-73
2021/11/23 07:22:06;;;;;;;28.60;18.25;;;-3.20;99.90;;;;;;5071519;28;20029;-73
2021/11/23 07:24:32;;;;;;;15.52;13.98;;;-3.10;99.90;;;;;;5069888;28;20031;-76
2021/11/23 07:26:58;;;;;;;14.95;11.60;;;-3.00;99.90;;;;;;5065092;28;20378;-73
2021/11/23 07:29:25;;;;;;;9.75;8.52;;;-3.00;99.90;;;;;;5058185;28;20063;-72
2021/11/23 07:31:51;;;;;;;9.23;8.32;;;-3.00;99.90;;;;;;5084057;28;20043;-73
2021/11/23 07:34:17;;;;;;;9.98;8.98;;;-3.00;99.90;;;;;;5094055;28;20044;-72
2021/11/23 07:36:43;;;;;;;11.20;9.10;;;-3.00;99.90;;;;;;5074834;28;20028;-74
2021/11/23 07:39:10;;;;;;;12.40;7.80;;;-3.00;99.90;;;;;;5078397;28;20061;-73
2021/11/23 07:41:36;;;;;;;9.32;7.45;;;-3.00;99.90;;;;;;5076726;28;20036;-74
2021/11/23 07:44:05;;;;;;;8.02;7.25;;;-3.00;99.90;;;;;;5075642;28;20389;-74
2021/11/23 07:46:31;;;;;;;7.63;6.93;;;-2.90;99.90;;;;;;5075421;28;20039;-74
2021/11/23 07:48:58;;;;;;;7.65;6.78;;;-2.80;99.90;;;;;;5074681;28;20032;-75
2021/11/23 07:51:24;;;;;;;7.68;6.88;;;-2.60;99.90;;;;;;5094191;28;20047;-73
2021/11/23 07:53:51;;;;;;;6.38;5.78;;;-2.30;99.90;;;;;;5081413;28;20202;-72
2021/11/23 07:56:18;;;;;;;6.32;5.28;;;-2.00;99.90;;;;;;5074732;28;20028;-72
2021/11/23 07:58:44;;;;;;;5.80;5.30;;;-1.60;99.90;;;;;;5080779;28;20505;-72
2021/11/23 08:01:10;;;;;;;5.43;4.97;;;-0.90;99.90;;;;;;5084839;28;20028;-72
2021/11/23 08:03:36;;;;;;;6.82;6.15;;;-0.80;99.90;;;;;;5074563;28;20040;-72
2021/11/23 08:06:03;;;;;;;13.85;4.93;;;-0.70;99.90;;;;;;5073776;28;20036;-72
2021/11/23 08:08:29;;;;;;;6.55;5.88;;;-0.60;99.90;;;;;;5081659;28;20469;-72
2021/11/23 08:10:57;;;;;;;6.95;6.28;;;-0.50;99.90;;;;;;5082611;28;20381;-72
2021/11/23 08:13:24;;;;;;;8.50;6.90;;;-0.50;99.90;;;;;;5075220;28;20394;-72
2021/11/23 08:15:50;;;;;;;8.55;7.75;;;-0.40;99.90;;;;;;5076919;28;20036;-72
2021/11/23 08:18:17;;;;;;;8.15;7.43;;;-0.30;99.90;;;;;;5087220;28;20507;-72
2021/11/23 08:20:43;;;;;;;8.50;7.65;;;-0.20;99.90;;;;;;5086559;28;20044;-72
2021/11/23 08:23:10;;;;;;;10.15;8.07;;;-0.20;99.90;;;;;;5086974;28;20086;-72
2021/11/23 08:25:39;;;;;;;15.57;9.60;;;-0.10;99.90;;;;;;5084606;28;20044;-71
2021/11/23 08:28:06;;;;;;;10.45;9.43;;;0.00;99.90;;;;;;5083159;28;20028;-71
2021/11/23 08:30:33;;;;;;;10.52;8.80;;;0.10;99.90;;;;;;5061823;28;20565;-76
2021/11/23 08:33:00;;;;;;;17.00;8.63;;;0.20;99.90;;;;;;5064080;28;20036;-72
2021/11/23 08:35:26;;;;;;;8.88;7.78;;;0.20;99.90;;;;;;5064131;28;20040;-72
2021/11/23 08:37:53;;;;;;;9.85;8.80;;;0.30;99.90;;;;;;5062672;28;20608;-72
2021/11/23 08:40:19;;;;;;;8.23;7.43;;;0.30;99.90;;;;;;5045444;28;20045;-72
2021/11/23 08:42:46;;;;;;;9.88;8.32;;;0.30;99.90;;;;;;5067669;28;20115;-71
2021/11/23 08:45:12;;;;;;;9.10;8.20;;;0.40;99.90;;;;;;5064232;28;20032;-71
2021/11/23 08:47:39;;;;;;;9.75;8.35;;;0.40;99.90;;;;;;5063799;28;20041;-72
2021/11/23 08:50:07;;;;;;;9.38;8.52;;;0.50;99.90;;;;;;5047675;28;20036;-72
2021/11/23 08:52:34;;;;;;;9.15;8.05;;;0.50;99.90;;;;;;5043628;28;20395;-73
2021/11/23 08:55:01;;;;;;;10.05;8.00;;;0.60;99.90;;;;;;5062789;28;20032;-72
2021/11/23 08:57:28;;;;;;;8.30;7.47;;;0.70;99.90;;;;;;5068239;28;20024;-72
2021/11/23 09:00:08;;;;;;;7.57;6.68;;;0.70;99.90;;;;;;5065196;28;20036;-70
2021/11/23 09:02:35;;;;;;;6.93;6.32;;;0.90;99.90;;;;;;5061308;28;20390;-72
2021/11/23 09:05:01;;;;;;;6.50;5.93;;;1.00;99.90;;;;;;5064380;28;20025;-72
2021/11/23 09:07:31;;;;;;;8.13;7.00;;;1.10;99.90;;;;;;5064020;28;20029;-72
2021/11/23 09:10:00;;;;;;;6.80;6.15;;;1.20;99.90;;;;;;5064973;28;20025;-74
2021/11/23 09:12:26;;;;;;;7.93;5.88;;;1.20;99.90;;;;;;5060096;28;20043;-73
2021/11/23 09:14:52;;;;;;;5.85;5.35;;;1.30;99.90;;;;;;5065537;28;20048;-73
2021/11/23 09:17:19;;;;;;;9.98;5.07;;;1.40;99.90;;;;;;5044538;28;20406;-71
2021/11/23 09:19:45;;;;;;;5.75;5.22;;;1.50;99.90;;;;;;5060901;28;20033;-71
2021/11/23 09:22:11;;;;;;;5.22;4.70;;;1.60;99.90;;;;;;5055630;28;20064;-71
2021/11/23 09:24:38;;;;;;;9.65;5.00;;;1.70;99.90;;;;;;5053891;28;20041;-71
2021/11/23 09:27:04;;;;;;;5.82;4.93;;;1.80;99.90;;;;;;5057237;28;20029;-71
2021/11/23 09:29:30;;;;;;;5.30;4.55;;;1.90;99.90;;;;;;5061584;28;20045;-71
2021/11/23 09:31:58;;;;;;;7.93;5.70;;;2.00;99.90;;;;;;5058295;28;20041;-71
2021/11/23 09:34:24;;;;;;;5.40;4.10;;;2.10;99.90;;;;;;5053474;28;20044;-71
2021/11/23 09:36:51;;;;;;;5.50;4.32;;;2.20;99.40;;;;;;5035086;28;20037;-71
2021/11/23 09:39:18;;;;;;;4.88;4.22;;;2.20;98.70;;;;;;5058718;28;20033;-71
2021/11/23 09:41:45;;;;;;;5.95;4.97;;;2.30;97.80;;;;;;5044949;28;20044;-71
2021/11/23 09:44:12;;;;;;;7.50;4.30;;;2.50;97.60;;;;;;5061343;28;20025;-71
2021/11/23 09:46:40;;;;;;;5.53;4.93;;;2.50;96.70;;;;;;5063928;28;20488;-71
2021/11/23 09:49:08;;;;;;;9.57;4.28;;;2.70;96.10;;;;;;5060600;28;20024;-71
2021/11/23 09:51:36;;;;;;;4.25;2.92;;;2.90;95.50;;;;;;5060793;28;20150;-74
2021/11/23 09:54:07;;;;;;;12.18;3.80;;;2.90;94.10;;;;;;5061937;28;20051;-71
2021/11/23 09:56:35;;;;;;;4.63;4.18;;;2.90;93.50;;;;;;5048904;28;20025;-75
2021/11/23 09:59:04;;;;;;;4.90;3.50;;;3.00;92.70;;;;;;5063430;28;20032;-73
2021/11/23 10:01:46;;;;;;;4.85;4.45;;;3.10;92.60;;;;;;5053447;28;20024;-72
2021/11/23 10:04:13;;;;;;;6.13;4.97;;;3.10;92.40;;;;;;5063639;28;20139;-71
2021/11/23 10:06:54;;;;;;;7.22;3.90;;;3.30;92.60;;;;;;5062222;28;20048;-73
2021/11/23 10:09:44;;;;;;;5.90;4.47;;;3.40;92.00;;;;;;5060840;28;20029;-73
2021/11/23 10:12:21;;;;;;;5.78;4.97;;;3.40;91.60;;;;;;5051881;28;20411;-72
2021/11/23 10:15:09;;;;;;;6.53;5.07;;;3.50;91.90;;;;;;5062200;28;20032;-72
2021/11/23 10:17:36;;;;;;;4.85;4.40;;;3.50;91.90;;;;;;5050550;28;20114;-77
2021/11/23 10:20:03;;;;;;;6.43;5.07;;;3.50;92.20;;;;;;5060561;28;20033;-72
2021/11/23 10:22:36;;;;;;;5.95;4.35;;;3.60;92.20;;;;;;5062875;28;20457;-72
2021/11/23 10:25:07;;;;;;;5.30;4.53;;;3.60;91.80;;;;;;5062696;28;20031;-72
2021/11/23 10:27:35;;;;;;;9.63;4.38;;;3.70;91.60;;;;;;5060614;28;20036;-71
2021/11/23 10:30:03;;;;;;;3.72;3.42;;;3.80;91.30;;;;;;5061570;28;20052;-73
2021/11/23 10:32:47;;;;;;;3.60;3.15;;;3.80;90.20;;;;;;5052925;28;20041;-72
2021/11/23 10:35:18;;;;;;;6.00;3.72;;;3.70;90.20;;;;;;5052843;28;20033;-71
2021/11/23 10:37:45;;;;;;;5.90;3.45;;;3.80;89.90;;;;;;5057397;28;20028;-72
2021/11/23 10:40:15;;;;;;;5.75;3.63;;;3.70;90.00;;;;;;5063631;28;20065;-72
2021/11/23 10:42:43;;;;;;;4.70;3.67;;;3.70;90.60;;;;;;5061222;28;20052;-72
2021/11/23 10:45:10;;;;;;;3.60;3.20;;;3.80;90.50;;;;;;5068198;28;20032;-71
2021/11/23 10:47:39;;;;;;;5.13;3.83;;;4.00;89.70;;;;;;5042288;28;20035;-76
2021/11/23 10:50:08;;;;;;;7.68;4.05;;;4.00;86.90;;;;;;5038276;28;20040;-72
2021/11/23 10:52:39;;;;;;;5.57;2.97;;;4.00;87.50;;;;;;5054380;28;20115;-72
2021/11/23 10:55:08;;;;;;;5.45;4.70;;;4.10;86.60;;;;;;5057346;28;20048;-73
2021/11/23 10:57:40;;;;;;;9.52;6.25;;;4.10;86.60;;;;;;5052225;28;20390;-71
2021/11/23 11:00:09;;;;;;;4.20;3.72;;;4.20;86.40;;;;;;5062063;28;20040;-72
2021/11/23 11:02:38;;;;;;;3.33;2.60;;;4.30;85.60;;;;;;5034463;28;20036;-72
2021/11/23 11:05:15;;;;;;;4.63;3.28;;;4.50;83.70;;;;;;5060620;28;20028;-71
2021/11/23 11:07:45;;;;;;;2.88;2.47;;;4.60;82.80;;;;;;5060536;28;20033;-71
2021/11/23 11:10:13;;;;;;;3.42;2.70;;;4.70;82.30;;;;;;5041286;28;20028;-71
2021/11/23 11:12:40;;;;;;;5.10;2.53;;;4.70;80.40;;;;;;5055644;28;20037;-76
2021/11/23 11:15:11;;;;;;;4.57;2.25;;;4.70;80.60;;;;;;5052151;28;20029;-72
2021/11/23 11:17:39;;;;;;;3.47;2.08;;;4.80;81.00;;;;;;5052743;28;20032;-76
2021/11/23 11:20:09;;;;;;;3.35;2.42;;;4.90;79.10;;;;;;5051599;28;20033;-75
2021/11/23 11:22:52;;;;;;;1.98;1.70;;;5.00;75.80;;;;;;5038529;28;20059;-71
2021/11/23 11:25:27;;;;;;;3.15;2.13;;;4.90;75.30;;;;;;5070953;28;20035;-70
2021/11/23 11:27:54;;;;;;;2.33;1.90;;;5.00;76.20;;;;;;5056291;28;20033;-71
2021/11/23 11:30:26;;;;;;;1.83;1.48;;;5.10;75.20;;;;;;5068251;28;20051;-72
2021/11/23 11:33:04;;;;;;;4.80;1.75;;;5.20;74.70;;;;;;5027033;28;20037;-71
2021/11/23 11:35:36;;;;;;;2.30;1.67;;;5.20;73.50;;;;;;5059123;28;20029;-70
2021/11/23 11:38:29;;;;;;;2.35;1.33;;;5.40;72.30;;;;;;5058322;28;20037;-70
2021/11/23 11:40:59;;;;;;;1.55;1.25;;;5.40;71.30;;;;;;5073724;28;20024;-70
2021/11/23 11:43:34;;;;;;;2.03;1.40;;;5.50;72.20;;;;;;5045428;28;20045;-71
2021/11/23 11:46:00;;;;;;;2.75;2.13;;;5.60;71.80;;;;;;5058266;28;20036;-72
2021/11/23 11:48:30;;;;;;;2.70;1.98;;;5.70;72.00;;;;;;5062394;28;20402;-70
2021/11/23 11:51:02;;;;;;;3.45;2.08;;;5.70;72.40;;;;;;5052992;28;20040;-71
2021/11/23 11:53:49;;;;;;;3.72;1.80;;;5.80;72.80;;;;;;5052254;28;20045;-71
2021/11/23 11:56:35;;;;;;;2.05;1.75;;;5.90;70.50;;;;;;5030482;28;20414;-71
2021/11/23 11:59:03;;;;;;;3.40;1.50;;;6.00;70.30;;;;;;5034562;28;20505;-71
2021/11/23 12:01:38;;;;;;;2.20;2.00;;;6.10;70.60;;;;;;5060012;28;20043;-71
2021/11/23 12:04:10;;;;;;;3.30;1.98;;;6.10;71.10;;;;;;5072777;28;20037;-71
2021/11/23 12:07:00;;;;;;;2.38;1.67;;;6.00;71.30;;;;;;5044152;28;20029;-71
2021/11/23 12:09:26;;;;;;;2.53;2.03;;;6.00;70.70;;;;;;5065457;28;20382;-71
2021/11/23 12:12:51;;;;;;;1.70;1.60;;;6.10;70.70;;;;;;5064737;28;20037;-71
2021/11/23 12:15:34;;;;;;;1.25;1.10;;;6.10;68.60;;;;;;5042513;28;20052;-70
2021/11/23 12:18:16;;;;;;;2.15;1.40;;;6.20;68.30;;;;;;5064038;28;20029;-71
2021/11/23 12:20:48;;;;;;;1.67;1.40;;;6.30;67.70;;;;;;5054797;28;20037;-71
2021/11/23 12:23:30;;;;;;;;;;;6.50;67.70;;;;;;5055783;28;20033;-71
2021/11/23 12:26:00;;;;;;;1.95;1.27;;;6.50;67.40;;;;;;5060701;28;19915;-71
2021/11/23 12:28:32;;;;;;;1.80;1.30;;;6.50;66.90;;;;;;5065641;28;20036;-70
2021/11/23 12:31:08;;;;;;;2.00;1.50;;;6.50;67.00;;;;;;5056018;28;20208;-70
2021/11/23 12:33:46;;;;;;;1.67;1.23;;;6.70;65.60;;;;;;5059358;28;20478;-73
2021/11/23 12:36:22;;;;;;;2.28;1.50;;;6.70;65.90;;;;;;5063012;28;20382;-71
2021/11/23 12:38:51;;;;;;;2.53;1.27;;;6.80;64.70;;;;;;5063735;28;20052;-71
2021/11/23 12:41:24;;;;;;;3.70;1.20;;;6.80;64.50;;;;;;5056913;28;20043;-71
2021/11/23 12:43:53;;;;;;;1.42;1.08;;;6.80;64.40;;;;;;5062890;28;20417;-70
2021/11/23 12:46:23;;;;;;;1.73;1.10;;;6.80;64.20;;;;;;5063325;28;20032;-71
2021/11/23 12:48:51;;;;;;;1.60;0.98;;;6.80;64.60;;;;;;5045492;28;20120;-71
2021/11/23 12:51:32;;;;;;;1.33;1.13;;;6.80;64.20;;;;;;5059816;28;20024;-71
2021/11/23 12:54:03;;;;;;;1.67;1.23;;;6.90;65.80;;;;;;5061304;28;20636;-71